createdAt,value
2018-05-25T00:01:53.962Z,65.33
2018-05-25T00:04:22.383Z,65.28
2018-05-25T00:06:50.418Z,65.72
2018-05-25T00:09:18.351Z,65.08
2018-05-25T00:11:46.317Z,64.66
2018-05-25T00:14:14.286Z,65.78
2018-05-25T00:16:42.243Z,65.83
2018-05-25T00:19:10.211Z,66.03
2018-05-25T00:21:38.178Z,66.99
2018-05-25T00:24:06.218Z,64.92
2018-05-25T00:26:34.373Z,65.28
2018-05-25T00:29:02.412Z,65.36
2018-05-25T00:31:30.391Z,65.80
2018-05-25T00:33:58.395Z,66.42
2018-05-25T00:36:26.335Z,67.38
2018-05-25T00:38:54.303Z,68.27
2018-05-25T00:41:22.263Z,67.98
2018-05-25T00:43:50.282Z,67.50
2018-05-25T00:46:18.297Z,69.98
2018-05-25T00:48:46.282Z,66.07
2018-05-25T00:51:14.278Z,66.51
2018-05-25T00:53:42.253Z,67.86
2018-05-25T00:56:10.226Z,68.45
2018-05-25T00:58:38.199Z,67.39
2018-05-25T01:01:06.280Z,66.91
2018-05-25T01:03:34.371Z,65.91
2018-05-25T01:06:02.704Z,65.18
2018-05-25T01:08:30.678Z,67.25
2018-05-25T01:10:58.653Z,66.07
2018-05-25T01:13:26.643Z,66.11
2018-05-25T01:15:54.661Z,67.11
2018-05-25T01:18:22.631Z,68.30
2018-05-25T01:20:50.606Z,68.83
2018-05-25T01:23:18.561Z,68.68
2018-05-25T01:25:46.546Z,68.61
2018-05-25T01:28:14.597Z,68.02
2018-05-25T01:30:42.591Z,67.89
2018-05-25T01:33:10.600Z,67.15
2018-05-25T01:35:38.599Z,67.67
2018-05-25T01:38:06.693Z,66.76
2018-05-25T01:40:34.703Z,65.91
2018-05-25T01:43:02.990Z,66.78
2018-05-25T01:45:30.890Z,64.27
2018-05-25T01:47:58.903Z,65.04
2018-05-25T01:50:26.926Z,63.48
2018-05-25T01:52:54.923Z,63.85
2018-05-25T01:55:22.869Z,64.11
2018-05-25T01:57:50.922Z,61.88
2018-05-25T02:00:18.842Z,61.37
2018-05-25T02:02:46.873Z,61.84
2018-05-25T02:05:14.895Z,60.94
2018-05-25T02:07:43.257Z,63.32
2018-05-25T02:10:11.282Z,63.86
2018-05-25T02:12:39.319Z,62.04
2018-05-25T02:15:07.326Z,62.96
2018-05-25T02:17:35.337Z,63.06
2018-05-25T02:20:03.440Z,61.70
2018-05-25T02:22:31.466Z,61.06
2018-05-25T02:24:59.450Z,62.64
2018-05-25T02:27:27.471Z,62.00
2018-05-25T02:29:55.436Z,62.20
2018-05-25T02:32:23.453Z,63.27
2018-05-25T02:34:51.453Z,61.39
2018-05-25T02:37:19.394Z,61.13
2018-05-25T02:39:47.458Z,61.24
2018-05-25T02:42:15.543Z,60.97
2018-05-25T02:44:43.530Z,66.00
2018-05-25T02:47:11.510Z,69.75
2018-05-25T02:49:39.462Z,68.71
2018-05-25T02:52:07.446Z,67.55
2018-05-25T02:54:35.407Z,65.03
2018-05-25T02:57:03.398Z,66.21
2018-05-25T02:59:31.329Z,69.21
2018-05-25T03:01:59.452Z,67.90
2018-05-25T03:04:27.406Z,68.53
2018-05-25T03:06:55.479Z,67.24
2018-05-25T03:09:23.698Z,65.62
2018-05-25T03:11:51.670Z,66.29
2018-05-25T03:14:19.706Z,66.55
2018-05-25T03:16:47.634Z,65.30
2018-05-25T03:19:15.656Z,64.10
2018-05-25T03:21:43.685Z,63.80
2018-05-25T03:24:11.683Z,63.39
2018-05-25T03:26:39.667Z,62.85
2018-05-25T03:29:07.695Z,62.20
2018-05-25T03:31:35.687Z,61.91
2018-05-25T03:34:03.638Z,61.40
2018-05-25T03:36:31.681Z,62.46
2018-05-25T03:38:59.687Z,62.49
2018-05-25T03:41:27.689Z,64.96
2018-05-25T03:43:55.727Z,65.29
2018-05-25T03:46:23.735Z,65.43
2018-05-25T03:48:51.703Z,65.31
2018-05-25T03:51:20.349Z,63.78
2018-05-25T03:53:48.368Z,62.84
2018-05-25T03:56:16.366Z,61.80
2018-05-25T03:58:55.994Z,64.36
2018-05-25T04:01:35.596Z,64.03
2018-05-25T04:04:05.310Z,64.93
2018-05-25T04:06:33.279Z,63.38
2018-05-25T04:09:01.218Z,64.03
2018-05-25T04:11:29.386Z,62.95
2018-05-25T04:13:57.320Z,63.88
2018-05-25T04:16:25.302Z,66.41
2018-05-25T04:18:53.299Z,66.82
2018-05-25T04:21:21.261Z,64.83
2018-05-25T04:23:49.223Z,62.91
2018-05-25T04:26:17.579Z,65.07
2018-05-25T04:28:45.593Z,69.98
2018-05-25T04:31:13.590Z,68.26
2018-05-25T04:33:41.719Z,66.13
2018-05-25T04:36:09.706Z,64.40
2018-05-25T04:38:37.674Z,63.01
2018-05-25T04:41:06.427Z,62.30
2018-05-25T04:43:34.442Z,64.86
2018-05-25T04:46:02.579Z,67.36
2018-05-25T04:48:30.552Z,67.14
2018-05-25T04:50:58.556Z,64.41
2018-05-25T04:53:26.470Z,64.24
2018-05-25T04:55:54.490Z,65.35
2018-05-25T04:58:22.507Z,63.37
2018-05-25T05:00:50.483Z,65.64
2018-05-25T05:03:18.510Z,67.92
2018-05-25T05:05:46.533Z,67.07
2018-05-25T05:08:14.433Z,65.76
2018-05-25T05:10:42.435Z,62.75
2018-05-25T05:13:10.687Z,62.84
2018-05-25T05:15:38.682Z,63.70
2018-05-25T05:18:06.674Z,64.70
2018-05-25T05:20:34.693Z,63.60
2018-05-25T05:23:02.729Z,64.39
2018-05-25T05:25:30.646Z,62.31
2018-05-25T05:27:58.554Z,60.10
2018-05-25T05:30:26.585Z,57.75
2018-05-25T05:32:54.598Z,60.91
2018-05-25T05:35:22.630Z,63.80
2018-05-25T05:37:50.603Z,62.61
2018-05-25T05:40:18.675Z,59.86
2018-05-25T05:42:46.657Z,59.05
2018-05-25T05:45:14.622Z,60.25
2018-05-25T05:47:42.630Z,58.26
2018-05-25T05:50:10.610Z,58.64
2018-05-25T05:52:38.559Z,58.57
2018-05-25T05:55:06.690Z,57.47
2018-05-25T05:57:34.610Z,57.27
2018-05-25T06:00:02.710Z,56.75
2018-05-25T06:02:30.782Z,56.33
2018-05-25T06:04:59.854Z,54.57
2018-05-25T06:07:27.987Z,53.78
2018-05-25T06:09:56.017Z,53.97
2018-05-25T06:12:24.070Z,54.06
2018-05-25T06:14:52.367Z,53.08
2018-05-25T06:17:20.511Z,53.10
2018-05-25T06:19:48.487Z,52.01
2018-05-25T06:22:16.515Z,51.68
2018-05-25T06:24:44.573Z,50.20
2018-05-25T06:27:12.600Z,49.90
2018-05-25T06:29:40.660Z,48.08
2018-05-25T06:32:08.665Z,49.24
2018-05-25T06:34:36.700Z,49.19
2018-05-25T06:40:00.584Z,50.19
2018-05-25T06:42:28.541Z,50.26
2018-05-25T06:44:57.204Z,48.90
2018-05-25T06:47:25.264Z,49.12
2018-05-25T06:49:55.568Z,48.77
2018-05-25T06:52:23.566Z,46.71
2018-05-25T06:54:51.752Z,46.14
2018-05-25T06:57:19.810Z,45.66
2018-05-25T06:59:47.840Z,47.54
2018-05-25T07:02:15.944Z,43.23
2018-05-25T07:04:44.000Z,46.17
2018-05-25T07:07:12.005Z,46.24
2018-05-25T07:09:40.009Z,44.75
2018-05-25T07:12:08.062Z,42.57
2018-05-25T07:14:36.129Z,42.25
2018-05-25T07:17:05.197Z,39.51
2018-05-25T07:19:34.125Z,41.63
2018-05-25T07:22:02.126Z,39.24
2018-05-25T07:24:30.692Z,38.77
2018-05-25T07:26:58.724Z,39.84
2018-05-25T07:29:26.744Z,42.05
2018-05-25T07:31:54.878Z,38.01
2018-05-25T07:34:22.941Z,39.52
2018-05-25T07:36:50.937Z,41.37
2018-05-25T07:39:19.267Z,39.14
2018-05-25T07:41:47.359Z,36.56
2018-05-25T07:44:15.353Z,41.43
2018-05-25T07:46:43.378Z,36.90
2018-05-25T07:49:11.405Z,36.03
2018-05-25T07:51:39.553Z,36.75
2018-05-25T07:54:07.547Z,37.42
2018-05-25T07:56:35.654Z,37.52
2018-05-25T07:59:03.642Z,39.77
2018-05-25T08:01:31.559Z,36.63
2018-05-25T08:03:59.509Z,34.56
2018-05-25T08:06:27.607Z,34.44
2018-05-25T08:08:55.617Z,33.23
2018-05-25T08:11:23.628Z,33.56
2018-05-25T08:13:51.617Z,32.67
2018-05-25T08:16:19.624Z,31.68
2018-05-25T08:18:47.825Z,33.00
2018-05-25T08:21:15.853Z,32.85
2018-05-25T08:23:43.821Z,33.24
2018-05-25T08:26:11.833Z,32.89
2018-05-25T08:28:39.942Z,31.98
2018-05-25T08:31:09.220Z,31.88
2018-05-25T08:33:37.467Z,33.09
2018-05-25T08:36:06.728Z,33.79
2018-05-25T08:41:38.662Z,33.08
2018-05-25T08:44:06.749Z,32.27
2018-05-25T08:46:36.207Z,32.49
2018-05-25T08:49:04.390Z,34.33
2018-05-25T08:51:32.537Z,33.81
2018-05-25T08:54:00.619Z,32.56
2018-05-25T08:56:28.674Z,32.26
2018-05-25T08:58:56.682Z,30.78
2018-05-25T09:01:24.699Z,31.42
2018-05-25T09:03:52.712Z,30.22
2018-05-25T09:06:20.698Z,30.26
2018-05-25T09:08:48.607Z,30.98
2018-05-25T09:11:16.697Z,31.59
2018-05-25T09:13:44.768Z,31.08
2018-05-25T09:16:12.829Z,32.33
2018-05-25T09:18:40.875Z,31.97
2018-05-25T09:21:08.900Z,33.16
2018-05-25T09:23:36.996Z,33.03
2018-05-25T09:26:04.980Z,33.35
2018-05-25T09:28:33.047Z,33.00
2018-05-25T09:31:01.054Z,34.19
2018-05-25T09:33:29.019Z,33.81
2018-05-25T09:35:57.034Z,32.71
2018-05-25T09:38:25.043Z,31.90
2018-05-25T09:40:53.142Z,31.09
2018-05-25T09:43:21.393Z,29.52
2018-05-25T09:45:49.535Z,29.85
2018-05-25T09:48:17.574Z,32.14
2018-05-25T09:50:45.582Z,32.54
2018-05-25T09:53:13.584Z,31.05
2018-05-25T09:55:41.560Z,32.72
2018-05-25T09:58:09.599Z,31.48
2018-05-25T10:00:37.548Z,32.76
2018-05-25T10:03:05.601Z,29.75
2018-05-25T10:05:33.668Z,29.93
2018-05-25T10:08:01.715Z,31.51
2018-05-25T10:10:29.739Z,30.74
2018-05-25T10:12:57.754Z,31.76
2018-05-25T10:15:25.882Z,32.19
2018-05-25T10:17:53.951Z,33.07
2018-05-25T10:20:22.015Z,32.18
2018-05-25T10:22:50.083Z,32.90
2018-05-25T10:25:18.123Z,35.06
2018-05-25T10:27:46.145Z,37.15
2018-05-25T10:30:14.171Z,39.28
2018-05-25T10:32:42.327Z,41.13
2018-05-25T10:35:10.363Z,36.09
2018-05-25T10:37:38.491Z,39.67
2018-05-25T10:40:06.545Z,42.56
2018-05-25T10:42:34.539Z,44.36
2018-05-25T10:45:02.900Z,44.05
2018-05-25T10:47:30.892Z,43.28
2018-05-25T10:49:58.933Z,42.98
2018-05-25T10:52:26.975Z,42.21
2018-05-25T10:54:55.050Z,43.58
2018-05-25T10:57:23.102Z,42.05
2018-05-25T10:59:51.276Z,45.02
2018-05-25T11:02:19.332Z,45.20
2018-05-25T11:04:47.379Z,47.12
2018-05-25T11:07:15.380Z,44.90
2018-05-25T11:09:43.440Z,44.30
2018-05-25T11:12:11.547Z,44.73
2018-05-25T11:14:39.641Z,46.56
2018-05-25T11:17:07.766Z,49.05
2018-05-25T11:19:35.815Z,50.02
2018-05-25T11:22:03.863Z,49.32
2018-05-25T11:24:31.926Z,48.89
2018-05-25T11:26:59.971Z,47.08
2018-05-25T11:29:28.045Z,50.20
2018-05-25T11:31:56.119Z,49.90
2018-05-25T11:34:24.953Z,51.21
2018-05-25T11:36:52.973Z,50.64
2018-05-25T11:39:21.039Z,50.83
2018-05-25T11:41:49.113Z,50.84
2018-05-25T11:44:17.174Z,51.18
2018-05-25T11:46:45.723Z,51.19
2018-05-25T11:49:13.743Z,49.49
2018-05-25T11:51:41.777Z,49.14
2018-05-25T11:54:09.816Z,49.38
2018-05-25T11:56:37.852Z,52.18
2018-05-25T11:59:05.798Z,51.83
2018-05-25T12:01:33.799Z,50.19
2018-05-25T12:04:01.837Z,50.34
2018-05-25T12:06:29.886Z,49.84
2018-05-25T12:08:57.914Z,46.87
2018-05-25T12:11:25.923Z,46.97
2018-05-25T12:13:54.010Z,47.19
2018-05-25T12:16:22.072Z,50.09
2018-05-25T12:18:50.084Z,49.92
2018-05-25T12:21:18.108Z,44.73
2018-05-25T12:23:46.158Z,48.13
2018-05-25T12:26:14.162Z,47.36
2018-05-25T12:28:42.258Z,47.75
2018-05-25T12:31:10.265Z,49.00
2018-05-25T12:33:38.369Z,45.45
2018-05-25T12:36:06.808Z,44.33
2018-05-25T12:38:34.773Z,44.02
2018-05-25T12:41:02.833Z,40.50
2018-05-25T12:43:30.883Z,40.44
2018-05-25T12:45:58.898Z,38.94
2018-05-25T12:48:27.307Z,40.34
2018-05-25T12:50:55.343Z,40.81
2018-05-25T12:53:23.377Z,40.64
2018-05-25T12:55:51.454Z,38.93
2018-05-25T12:58:19.483Z,39.55
2018-05-25T13:00:47.527Z,39.16
2018-05-25T13:03:15.520Z,38.02
2018-05-25T13:05:43.549Z,36.89
2018-05-25T13:08:11.543Z,36.76
2018-05-25T13:10:39.575Z,37.88
2018-05-25T13:13:07.605Z,36.16
2018-05-25T13:15:35.720Z,35.51
2018-05-25T13:18:04.353Z,35.49
2018-05-25T13:20:32.943Z,34.84
2018-05-25T13:23:01.602Z,34.26
2018-05-25T13:25:30.007Z,35.45
2018-05-25T13:27:58.574Z,34.15
2018-05-25T13:30:27.256Z,32.41
2018-05-25T13:32:55.286Z,33.43
2018-05-25T13:35:23.328Z,34.43
2018-05-25T13:37:51.393Z,34.90
2018-05-25T13:40:19.429Z,34.68
2018-05-25T13:42:47.508Z,34.36
2018-05-25T13:45:15.640Z,34.44
2018-05-25T13:47:44.303Z,34.71
2018-05-25T13:50:12.595Z,34.77
2018-05-25T13:52:40.656Z,35.21
2018-05-25T13:55:16.015Z,35.84
2018-05-25T13:57:45.341Z,35.44
2018-05-25T14:00:15.733Z,35.06
2018-05-25T14:02:44.146Z,35.94
2018-05-25T14:05:12.200Z,35.04
2018-05-25T14:07:41.150Z,35.37
2018-05-25T14:10:09.206Z,35.70
2018-05-25T14:12:37.253Z,35.01
2018-05-25T14:15:05.330Z,34.85
2018-05-25T14:17:33.374Z,36.00
2018-05-25T14:20:01.413Z,35.91
2018-05-25T14:22:29.478Z,36.88
2018-05-25T14:24:57.644Z,37.31
2018-05-25T14:27:25.670Z,39.27
2018-05-25T14:29:53.685Z,39.89
2018-05-25T14:32:21.719Z,39.60
2018-05-25T14:34:49.829Z,40.04
2018-05-25T14:37:17.903Z,39.84
2018-05-25T14:39:46.028Z,40.65
2018-05-25T14:42:14.051Z,41.23
2018-05-25T14:44:42.006Z,41.65
2018-05-25T14:47:10.041Z,41.45
2018-05-25T14:49:38.047Z,41.21
2018-05-25T14:52:07.005Z,40.39
2018-05-25T14:54:35.011Z,39.62
2018-05-25T14:57:03.045Z,40.56
2018-05-25T14:59:31.045Z,39.37
2018-05-25T15:01:59.739Z,40.75
2018-05-25T15:04:27.802Z,39.31
2018-05-25T15:06:55.849Z,40.57
2018-05-25T15:09:23.891Z,40.45
2018-05-25T15:11:51.935Z,42.87
2018-05-25T15:14:19.906Z,42.41
2018-05-25T15:16:47.902Z,42.22
2018-05-25T15:19:15.958Z,42.10
2018-05-25T15:21:43.963Z,43.17
2018-05-25T15:24:12.016Z,43.37
2018-05-25T15:26:40.080Z,44.48
2018-05-25T15:29:08.083Z,46.74
2018-05-25T15:31:36.135Z,45.18
2018-05-25T15:34:04.162Z,44.58
2018-05-25T15:36:32.252Z,46.68
2018-05-25T15:39:00.282Z,44.96
2018-05-25T15:41:28.300Z,44.02
2018-05-25T15:43:56.293Z,42.81
2018-05-25T15:46:24.356Z,42.81
2018-05-25T15:48:52.384Z,43.06
2018-05-25T15:51:20.404Z,42.92
2018-05-25T15:53:48.560Z,42.54
2018-05-25T15:56:16.659Z,42.53
2018-05-25T15:58:44.711Z,42.08
2018-05-25T16:01:12.798Z,42.67
2018-05-25T16:03:40.818Z,43.11
2018-05-25T16:06:08.810Z,42.99
2018-05-25T16:08:36.920Z,42.92
2018-05-25T16:11:05.039Z,44.80
2018-05-25T16:13:33.067Z,45.26
2018-05-25T16:16:01.128Z,45.85
2018-05-25T16:18:29.195Z,45.35
2018-05-25T16:20:57.156Z,46.84
2018-05-25T16:23:25.633Z,54.83
2018-05-25T16:25:53.734Z,55.12
2018-05-25T16:28:22.893Z,52.23
2018-05-25T16:30:51.027Z,54.70
2018-05-25T16:33:19.104Z,54.77
2018-05-25T16:35:47.223Z,55.56
2018-05-25T16:38:15.303Z,56.29
2018-05-25T16:40:43.351Z,58.09
2018-05-25T16:43:11.398Z,59.34
2018-05-25T16:45:39.514Z,58.87
2018-05-25T16:48:07.631Z,59.25
2018-05-25T16:50:35.790Z,58.16
2018-05-25T16:53:03.936Z,57.60
2018-05-25T16:55:32.434Z,55.37
2018-05-25T16:58:00.450Z,54.60
2018-05-25T17:00:28.583Z,54.01
2018-05-25T17:02:56.619Z,51.65
2018-05-25T17:05:24.673Z,52.16
2018-05-25T17:07:53.443Z,51.12
2018-05-25T17:10:21.444Z,51.52
2018-05-25T17:12:49.530Z,47.97
2018-05-25T17:15:17.529Z,49.25
2018-05-25T17:17:45.560Z,48.17
2018-05-25T17:20:13.591Z,48.16
2018-05-25T17:22:41.596Z,48.82
2018-05-25T17:25:09.587Z,50.37
2018-05-25T17:27:37.603Z,50.63
2018-05-25T17:30:05.672Z,51.43
2018-05-25T17:32:33.704Z,52.33
2018-05-25T17:35:01.734Z,51.99
2018-05-25T17:37:29.833Z,51.43
2018-05-25T17:39:57.854Z,51.62
2018-05-25T17:42:25.987Z,52.01
2018-05-25T17:44:53.991Z,52.83
2018-05-25T17:47:21.988Z,51.13
2018-05-25T17:49:49.950Z,50.38
2018-05-25T17:52:18.035Z,49.56
2018-05-25T17:54:45.977Z,52.84
2018-05-25T17:57:14.473Z,53.61
2018-05-25T17:59:42.497Z,53.98
2018-05-25T18:02:10.555Z,52.07
2018-05-25T18:04:38.608Z,52.37
2018-05-25T18:07:06.517Z,55.32
2018-05-25T18:09:34.557Z,57.27
2018-05-25T18:12:02.566Z,55.89
2018-05-25T18:14:30.537Z,55.08
2018-05-25T18:16:58.563Z,54.31
2018-05-25T18:19:26.590Z,56.87
2018-05-25T18:21:54.604Z,54.63
2018-05-25T18:24:22.642Z,54.53
2018-05-25T18:26:50.614Z,54.16
2018-05-25T18:29:18.625Z,53.70
2018-05-25T18:31:46.786Z,53.96
2018-05-25T18:34:14.813Z,53.73
2018-05-25T18:36:42.840Z,55.96
2018-05-25T18:39:10.827Z,57.30
2018-05-25T18:41:38.783Z,56.25
2018-05-25T18:44:06.885Z,55.05
2018-05-25T18:46:34.817Z,56.34
2018-05-25T18:49:02.867Z,58.30
2018-05-25T18:51:30.922Z,58.53
2018-05-25T18:54:10.550Z,57.14
2018-05-25T18:56:39.465Z,56.81
2018-05-25T18:59:07.726Z,58.77
2018-05-25T19:01:35.699Z,57.77
2018-05-25T19:04:03.726Z,58.86
2018-05-25T19:06:31.795Z,56.80
2018-05-25T19:08:59.784Z,56.69
2018-05-25T19:11:27.803Z,56.33
2018-05-25T19:13:55.838Z,55.07
2018-05-25T19:16:23.854Z,57.74
2018-05-25T19:18:52.007Z,58.29
2018-05-25T19:21:20.032Z,55.14
2018-05-25T19:23:48.003Z,54.16
2018-05-25T19:26:16.116Z,54.01
2018-05-25T19:28:44.239Z,55.17
2018-05-25T19:31:12.218Z,57.28
2018-05-25T19:33:40.091Z,57.46
2018-05-25T19:36:08.193Z,57.84
2018-05-25T19:38:36.346Z,55.58
2018-05-25T19:41:04.341Z,56.04
2018-05-25T19:43:32.381Z,57.37
2018-05-25T19:46:00.401Z,58.67
2018-05-25T19:48:28.381Z,57.33
2018-05-25T19:50:56.389Z,56.33
2018-05-25T19:53:24.452Z,58.30
2018-05-25T19:55:52.417Z,57.11
2018-05-25T19:58:20.437Z,57.80
2018-05-25T20:00:48.670Z,58.65
2018-05-25T20:03:16.698Z,60.88
2018-05-25T20:05:44.745Z,60.67
2018-05-25T20:08:12.718Z,61.59
2018-05-25T20:10:40.715Z,61.58
2018-05-25T20:13:08.823Z,59.65
2018-05-25T20:15:36.946Z,59.35
2018-05-25T20:18:05.053Z,59.03
2018-05-25T20:20:33.107Z,59.36
2018-05-25T20:23:01.091Z,59.35
2018-05-25T20:25:29.092Z,59.36
2018-05-25T20:27:57.047Z,59.35
2018-05-25T20:30:25.074Z,61.58
2018-05-25T20:32:57.201Z,61.54
2018-05-25T20:35:25.202Z,63.50
2018-05-25T20:37:53.166Z,63.70
2018-05-25T20:40:21.124Z,64.27
2018-05-25T20:42:49.119Z,62.98
2018-05-25T20:45:17.107Z,63.24
2018-05-25T20:47:45.084Z,60.81
2018-05-25T20:50:13.036Z,59.05
2018-05-25T20:52:41.023Z,57.80
2018-05-25T20:55:09.065Z,60.29
2018-05-25T20:57:37.083Z,61.67
2018-05-25T21:00:05.117Z,64.68
2018-05-25T21:02:33.392Z,65.46
2018-05-25T21:05:01.477Z,64.16
2018-05-25T21:07:29.467Z,64.32
2018-05-25T21:09:57.516Z,65.09
2018-05-25T21:12:25.617Z,64.15
2018-05-25T21:14:53.703Z,62.77
2018-05-25T21:17:22.607Z,61.89
2018-05-25T21:19:50.557Z,60.15
2018-05-25T21:22:18.556Z,59.81
2018-05-25T21:24:46.550Z,58.98
2018-05-25T21:27:14.564Z,59.25
2018-05-25T21:29:42.573Z,59.66
2018-05-25T21:32:10.631Z,61.46
2018-05-25T21:34:38.646Z,59.96
2018-05-25T21:37:06.640Z,58.71
2018-05-25T21:39:34.641Z,60.06
2018-05-25T21:42:02.631Z,59.88
2018-05-25T21:44:30.656Z,58.83
2018-05-25T21:46:58.658Z,59.63
2018-05-25T21:49:26.637Z,64.24
2018-05-25T21:51:54.669Z,65.97
2018-05-25T21:54:22.661Z,62.91
2018-05-25T21:56:50.779Z,61.32
2018-05-25T21:59:18.754Z,60.68
2018-05-25T22:01:46.795Z,59.92
2018-05-25T22:04:14.872Z,59.69
2018-05-25T22:06:42.867Z,58.95
2018-05-25T22:09:10.849Z,59.17
2018-05-25T22:11:38.897Z,60.13
2018-05-25T22:14:06.997Z,60.34
2018-05-25T22:16:35.134Z,60.73
2018-05-25T22:19:03.030Z,61.54
2018-05-25T22:21:30.998Z,62.11
2018-05-25T22:23:59.019Z,60.76
2018-05-25T22:26:27.076Z,63.08
2018-05-25T22:28:55.088Z,60.81
2018-05-25T22:31:23.066Z,62.48
2018-05-25T22:33:51.051Z,63.01
2018-05-25T22:36:19.019Z,61.92
2018-05-25T22:38:47.071Z,61.24
2018-05-25T22:41:15.083Z,61.13
2018-05-25T22:43:54.713Z,60.00
2018-05-25T22:46:35.264Z,59.29
2018-05-25T22:49:14.922Z,59.09
2018-05-25T22:51:54.693Z,59.62
2018-05-25T22:54:36.118Z,59.06
2018-05-25T22:57:04.084Z,58.89
2018-05-25T22:59:32.115Z,59.40
2018-05-25T23:02:00.139Z,59.34
2018-05-25T23:04:28.904Z,59.44
2018-05-25T23:06:56.825Z,58.60
2018-05-25T23:09:24.900Z,58.86
2018-05-25T23:11:52.893Z,59.02
2018-05-25T23:14:20.859Z,58.75
2018-05-25T23:16:48.845Z,58.32
2018-05-25T23:19:16.926Z,58.33
2018-05-25T23:21:45.041Z,59.39
2018-05-25T23:24:12.952Z,59.83
2018-05-25T23:26:41.019Z,61.49
2018-05-25T23:29:08.990Z,61.42
2018-05-25T23:31:37.002Z,59.93
2018-05-25T23:34:04.966Z,58.97
2018-05-25T23:36:32.903Z,59.00
2018-05-25T23:39:00.914Z,58.25
2018-05-25T23:41:28.929Z,60.97
2018-05-25T23:43:56.910Z,60.51
2018-05-25T23:46:24.943Z,60.31
2018-05-25T23:48:52.975Z,58.74
2018-05-25T23:51:20.969Z,58.58
2018-05-25T23:53:48.999Z,59.08
2018-05-25T23:56:17.051Z,59.10
2018-05-25T23:58:45.068Z,60.67
